createdAt,value
2022-11-19T10:50:00.549Z,13.20
2022-11-19T11:08:30.895Z,15.82
2022-11-19T11:10:59.480Z,13.05
2022-11-19T11:13:57.008Z,13.13
2022-11-19T11:16:45.284Z,13.45
2022-11-19T11:19:17.877Z,12.10
2022-11-19T11:21:47.091Z,15.18
2022-11-19T11:24:14.528Z,12.63
2022-11-19T11:26:41.921Z,11.70
2022-11-19T11:29:15.148Z,12.38
2022-11-19T11:31:46.277Z,12.80
2022-11-19T11:34:31.536Z,10.93
2022-11-19T11:37:03.298Z,11.32
2022-11-19T11:39:55.337Z,11.07
2022-11-19T11:42:28.672Z,11.27
2022-11-19T11:45:00.444Z,10.30
2022-11-19T11:47:36.375Z,10.77
2022-11-19T11:50:29.868Z,12.45
2022-11-19T11:52:57.857Z,10.48
2022-11-19T11:55:24.734Z,9.02
2022-11-19T11:57:54.644Z,9.90
2022-11-19T12:00:44.492Z,9.98
2022-11-19T12:03:18.822Z,8.77
2022-11-19T12:06:17.224Z,10.73
2022-11-19T12:09:27.574Z,11.07
2022-11-19T12:12:25.925Z,16.63
2022-11-19T12:15:06.264Z,9.98
2022-11-19T12:17:54.676Z,10.35
2022-11-19T12:20:43.352Z,11.52
2022-11-19T12:23:38.478Z,11.30
2022-11-19T12:26:36.824Z,13.38
2022-11-19T12:29:25.413Z,12.25
2022-11-19T12:32:36.701Z,11.65
2022-11-19T12:35:38.115Z,12.82
2022-11-19T12:38:36.446Z,14.10
2022-11-19T12:41:47.093Z,12.00
2022-11-19T12:44:37.310Z,14.68
2022-11-19T12:47:35.000Z,15.13
2022-11-19T12:50:30.251Z,13.55
2022-11-19T12:53:43.915Z,13.43
2022-11-19T12:56:49.630Z,12.38
2022-11-19T12:59:57.576Z,12.80
2022-11-19T13:02:37.296Z,13.63
2022-11-19T13:05:32.492Z,12.27
2022-11-19T13:08:44.696Z,14.52
2022-11-19T13:11:26.812Z,13.70
2022-11-19T13:14:00.880Z,12.13
2022-11-19T13:16:32.779Z,13.55
2022-11-19T13:19:23.530Z,13.98
2022-11-19T13:22:06.269Z,14.25
2022-11-19T13:24:46.604Z,12.32
2022-11-19T13:27:23.247Z,14.30
2022-11-19T13:30:18.421Z,14.38
2022-11-19T13:32:57.385Z,14.57
2022-11-19T13:35:35.258Z,13.30
2022-11-19T13:38:45.512Z,14.18
2022-11-19T13:41:27.776Z,14.88
2022-11-19T13:44:15.436Z,16.95
2022-11-19T13:46:45.620Z,16.20
2022-11-19T13:49:47.657Z,17.63
2022-11-19T13:52:32.833Z,14.67
2022-11-19T13:55:01.212Z,16.63
2022-11-19T13:57:35.076Z,17.30
2022-11-19T14:00:21.757Z,20.90
2022-11-19T14:03:17.863Z,21.85
2022-11-19T14:06:01.305Z,22.15
2022-11-19T14:08:47.052Z,22.02
2022-11-19T14:11:29.487Z,21.02
2022-11-19T14:15:06.055Z,22.45
2022-11-19T14:18:17.531Z,20.02
2022-11-19T14:21:04.350Z,18.83
2022-11-19T14:24:08.611Z,17.13
2022-11-19T14:26:41.784Z,19.05
2022-11-19T14:29:34.803Z,20.25
2022-11-19T14:32:07.983Z,18.23
2022-11-19T14:34:45.831Z,16.83
2022-11-19T14:37:28.288Z,19.45
2022-11-19T14:40:12.468Z,13.98
2022-11-19T14:43:20.483Z,15.43
2022-11-19T14:46:03.007Z,16.33
2022-11-19T14:48:53.216Z,17.20
2022-11-19T14:51:41.440Z,18.88
2022-11-19T14:54:14.424Z,15.88
2022-11-19T14:56:47.658Z,15.25
2022-11-19T14:59:14.956Z,15.70
2022-11-19T15:02:27.082Z,16.27
2022-11-19T15:05:05.695Z,16.73
2022-11-19T15:07:57.960Z,16.58
2022-11-19T15:10:32.922Z,15.07
2022-11-19T15:13:25.747Z,18.42
2022-11-19T15:15:58.667Z,16.58
2022-11-19T15:21:48.739Z,17.77
2022-11-19T15:24:42.720Z,19.15
2022-11-19T15:27:37.912Z,30.80
2022-11-19T15:30:25.918Z,70.30
2022-11-19T15:33:29.032Z,37.58
2022-11-19T15:36:18.928Z,38.65
2022-11-19T15:39:00.605Z,41.50
2022-11-19T15:41:36.694Z,75.15
2022-11-19T15:44:13.219Z,48.38
2022-11-19T15:46:54.168Z,51.92
2022-11-19T15:49:26.387Z,59.45
2022-11-19T15:52:01.804Z,60.58
2022-11-19T15:54:32.540Z,57.80
2022-11-19T15:57:16.421Z,54.13
2022-11-19T15:59:49.154Z,46.47
2022-11-19T16:02:42.269Z,49.55
2022-11-19T16:05:30.048Z,44.53
2022-11-19T16:08:05.539Z,44.25
2022-11-19T16:10:41.372Z,65.72
2022-11-19T16:13:43.153Z,50.10
2022-11-19T16:16:47.776Z,48.78
2022-11-19T16:19:17.271Z,62.95
2022-11-19T16:21:50.114Z,39.25
2022-11-19T16:24:39.179Z,55.97
2022-11-19T16:27:13.069Z,41.08
2022-11-19T16:29:43.923Z,45.05
2022-11-19T16:32:20.977Z,43.20
2022-11-19T16:34:48.118Z,46.30
2022-11-19T16:37:21.196Z,40.20
2022-11-19T16:39:52.629Z,38.55
2022-11-19T16:42:27.292Z,38.53
2022-11-19T16:45:04.131Z,35.80
2022-11-19T16:47:56.574Z,37.05
2022-11-19T16:50:42.291Z,34.97
2022-11-19T16:53:12.587Z,42.05
2022-11-19T16:55:42.945Z,35.58
2022-11-19T16:58:14.741Z,36.88
2022-11-19T17:00:48.755Z,35.85
2022-11-19T17:03:20.564Z,37.10
2022-11-19T17:05:51.989Z,33.92
2022-11-19T17:08:25.061Z,33.27
2022-11-19T17:11:33.558Z,33.20
2022-11-19T17:14:09.508Z,35.13
2022-11-19T17:16:36.600Z,34.08
2022-11-19T17:19:25.428Z,35.67
2022-11-19T17:22:14.083Z,34.88
2022-11-19T17:24:44.410Z,32.05
2022-11-19T17:27:37.082Z,37.10
2022-11-19T17:30:17.728Z,36.40
2022-11-19T17:32:53.417Z,36.28
2022-11-19T17:35:47.581Z,36.70
2022-11-19T17:38:29.884Z,38.40
2022-11-19T17:41:03.048Z,33.47
2022-11-19T17:43:52.466Z,33.28
2022-11-19T17:46:21.199Z,31.17
2022-11-19T17:48:50.293Z,34.53
2022-11-19T17:51:26.925Z,29.42
2022-11-19T17:53:55.535Z,35.97
2022-11-19T17:56:29.377Z,35.33
2022-11-19T17:58:56.993Z,58.00
2022-11-19T18:01:24.390Z,80.15
2022-11-19T18:03:51.415Z,78.38
2022-11-19T18:06:19.233Z,86.90
2022-11-19T18:08:46.823Z,88.82
2022-11-19T18:11:22.369Z,99.57
2022-11-19T18:13:53.945Z,96.55
2022-11-19T18:16:27.582Z,86.30
2022-11-19T18:18:54.673Z,85.93
2022-11-19T18:21:23.419Z,81.80
2022-11-19T18:23:51.709Z,76.70
2022-11-19T18:26:23.556Z,79.20
2022-11-19T18:28:50.987Z,78.53
2022-11-19T18:31:22.854Z,84.70
2022-11-19T18:33:50.464Z,75.03
2022-11-19T18:36:18.340Z,62.17
2022-11-19T18:38:45.832Z,68.47
2022-11-19T18:41:15.715Z,59.75
2022-11-19T18:44:01.364Z,62.33
2022-11-19T18:46:28.884Z,63.50
2022-11-19T18:48:56.268Z,56.38
2022-11-19T18:51:24.504Z,57.13
2022-11-19T18:53:51.393Z,53.78
2022-11-19T18:56:19.716Z,49.58
2022-11-19T18:58:47.212Z,48.03
2022-11-19T19:01:16.285Z,49.83
2022-11-19T19:03:44.386Z,48.65
2022-11-19T19:06:12.114Z,51.03
2022-11-19T19:08:39.187Z,49.15
2022-11-19T19:11:27.028Z,45.05
2022-11-19T19:13:54.457Z,43.33
2022-11-19T19:16:22.760Z,44.65
2022-11-19T19:18:49.980Z,40.97
2022-11-19T19:21:20.826Z,43.70
2022-11-19T19:23:49.257Z,43.33
2022-11-19T19:26:18.693Z,41.90
2022-11-19T19:28:54.497Z,39.47
2022-11-19T19:31:23.769Z,40.40
2022-11-19T19:33:52.273Z,42.97
2022-11-19T19:36:21.825Z,40.92
2022-11-19T19:38:49.413Z,39.92
2022-11-19T19:41:27.180Z,39.65
2022-11-19T19:43:57.339Z,41.67
2022-11-19T19:46:24.720Z,43.03
2022-11-19T19:48:54.632Z,40.45
2022-11-19T19:51:25.492Z,40.72
2022-11-19T19:53:54.325Z,43.75
2022-11-19T19:56:28.165Z,43.60
2022-11-19T19:58:57.806Z,41.78
2022-11-19T20:01:34.546Z,46.08
2022-11-19T20:04:09.357Z,46.03
2022-11-19T20:06:44.181Z,47.35
2022-11-19T20:09:11.439Z,45.90
2022-11-19T20:11:38.849Z,44.58
2022-11-19T20:14:06.721Z,39.10
2022-11-19T20:16:35.161Z,46.53
2022-11-19T20:19:03.235Z,42.75
2022-11-19T20:21:36.163Z,45.47
2022-11-19T20:24:11.538Z,45.83
2022-11-19T20:26:41.300Z,45.63
2022-11-19T20:29:13.348Z,43.13
2022-11-19T20:31:46.082Z,41.65
2022-11-19T20:34:15.014Z,45.50
2022-11-19T20:36:42.823Z,43.50
2022-11-19T20:39:10.188Z,42.75
2022-11-19T20:41:55.888Z,46.28
2022-11-19T20:44:23.615Z,50.15
2022-11-19T20:47:03.287Z,48.58
2022-11-19T20:49:38.908Z,43.80
2022-11-19T20:52:07.405Z,46.42
2022-11-19T20:54:34.818Z,48.00
2022-11-19T20:57:02.580Z,46.72
2022-11-19T20:59:29.928Z,44.42
2022-11-19T21:01:57.212Z,45.17
2022-11-19T21:04:27.848Z,40.28
2022-11-19T21:06:55.687Z,42.20
2022-11-19T21:09:23.239Z,43.97
2022-11-19T21:11:50.665Z,42.35
2022-11-19T21:14:18.080Z,39.00
2022-11-19T21:16:45.548Z,37.72
2022-11-19T21:19:14.000Z,37.83
2022-11-19T21:21:41.798Z,36.97
2022-11-19T21:24:09.252Z,37.85
2022-11-19T21:26:36.485Z,39.92
2022-11-19T21:29:04.172Z,42.97
2022-11-19T21:31:48.415Z,37.92
2022-11-19T21:34:20.309Z,38.38
2022-11-19T21:36:49.248Z,39.22
2022-11-19T21:39:18.866Z,40.42
2022-11-19T21:41:46.516Z,37.20
2022-11-19T21:44:19.631Z,36.17
2022-11-19T21:46:48.403Z,40.80
2022-11-19T21:49:15.876Z,38.38
2022-11-19T21:51:43.337Z,37.28
2022-11-19T21:54:10.599Z,39.15
2022-11-19T21:56:39.019Z,39.60
2022-11-19T21:59:07.539Z,40.47
2022-11-19T22:01:34.876Z,41.17
2022-11-19T22:04:02.586Z,45.33
2022-11-19T22:06:31.828Z,41.38
2022-11-19T22:08:59.118Z,39.38
2022-11-19T22:11:29.106Z,39.60
2022-11-19T22:14:05.628Z,36.38
2022-11-19T22:16:37.759Z,38.78
2022-11-19T22:19:05.961Z,49.78
2022-11-19T22:21:34.411Z,49.30
2022-11-19T22:24:02.662Z,47.70
2022-11-19T22:26:30.374Z,50.25
2022-11-19T22:28:58.111Z,51.83
2022-11-19T22:31:26.097Z,54.55
2022-11-19T22:33:53.788Z,54.30
2022-11-19T22:36:22.686Z,50.83
2022-11-19T22:38:51.774Z,54.58
2022-11-19T22:41:21.197Z,52.08
2022-11-19T22:43:49.545Z,55.53
2022-11-19T22:46:17.693Z,49.72
2022-11-19T22:48:44.972Z,49.65
2022-11-19T22:51:15.746Z,48.58
2022-11-19T22:53:43.557Z,47.38
2022-11-19T22:56:14.333Z,49.45
2022-11-19T22:58:42.145Z,45.22
2022-11-19T23:01:25.324Z,51.85
2022-11-19T23:03:54.695Z,48.88
2022-11-19T23:06:22.888Z,48.38
2022-11-19T23:08:51.028Z,51.05
2022-11-19T23:11:41.321Z,50.97
2022-11-19T23:14:13.131Z,50.10
2022-11-19T23:16:41.447Z,43.13
2022-11-19T23:19:10.788Z,47.28
2022-11-19T23:21:38.557Z,50.10
2022-11-19T23:24:06.578Z,50.03
2022-11-19T23:26:34.760Z,54.03
2022-11-19T23:29:02.456Z,53.42
2022-11-19T23:31:33.624Z,58.50
2022-11-19T23:34:00.940Z,53.95
2022-11-19T23:36:35.201Z,53.35
2022-11-19T23:39:05.076Z,49.58
2022-11-19T23:41:34.377Z,49.33
2022-11-19T23:44:02.173Z,54.75
2022-11-19T23:46:33.978Z,57.55
2022-11-19T23:49:02.612Z,55.58
2022-11-19T23:51:33.852Z,56.70
2022-11-19T23:54:02.433Z,55.67
2022-11-19T23:56:31.953Z,55.00
2022-11-19T23:59:01.800Z,50.85
